createdAt,value
2022-10-10T00:00:20.313Z,100084.56
2022-10-10T00:02:48.462Z,100084.19
2022-10-10T00:05:17.598Z,100083.34
2022-10-10T00:07:45.483Z,100077.22
2022-10-10T00:10:12.986Z,100074.72
2022-10-10T00:12:40.450Z,100073.56
2022-10-10T00:15:09.206Z,100073.00
2022-10-10T00:17:36.641Z,100069.50
2022-10-10T00:20:04.964Z,100069.13
2022-10-10T00:22:33.980Z,100059.22
2022-10-10T00:25:01.622Z,100062.19
2022-10-10T00:27:29.087Z,100056.53
2022-10-10T00:29:56.855Z,100053.81
2022-10-10T00:32:24.276Z,100060.13
2022-10-10T00:34:51.854Z,100038.75
2022-10-10T00:37:19.325Z,100051.81
2022-10-10T00:39:48.210Z,100051.47
2022-10-10T00:42:17.529Z,100047.78
2022-10-10T00:44:46.780Z,100049.09
2022-10-10T00:47:14.317Z,100043.91
2022-10-10T00:49:44.339Z,100049.25
2022-10-10T00:52:12.723Z,100048.09
2022-10-10T00:54:40.578Z,100046.78
2022-10-10T00:57:11.470Z,100038.44
2022-10-10T00:59:40.358Z,100034.81
2022-10-10T01:02:07.877Z,100036.63
2022-10-10T01:04:39.565Z,100029.16
2022-10-10T01:07:12.786Z,100032.72
2022-10-10T01:09:41.709Z,100028.81
2022-10-10T01:12:19.141Z,100031.31
2022-10-10T01:14:50.290Z,100027.41
2022-10-10T01:17:21.911Z,100023.56
2022-10-10T01:20:27.961Z,100024.03
2022-10-10T01:23:08.000Z,100025.56
2022-10-10T01:25:43.972Z,100024.75
2022-10-10T01:28:21.747Z,100022.09
2022-10-10T01:30:49.862Z,100011.97
2022-10-10T01:33:19.350Z,100021.50
2022-10-10T01:35:51.960Z,100015.44
2022-10-10T01:38:26.372Z,100005.47
2022-10-10T01:40:57.819Z,100006.19
2022-10-10T01:43:27.070Z,100007.88
2022-10-10T01:45:55.168Z,100009.84
2022-10-10T01:48:33.602Z,100010.59
2022-10-10T01:51:14.089Z,100005.63
2022-10-10T01:53:44.615Z,100002.97
2022-10-10T01:56:17.839Z,100005.81
2022-10-10T01:58:59.614Z,99996.44
2022-10-10T02:01:30.435Z,99996.09
2022-10-10T02:04:03.512Z,99989.94
2022-10-10T02:06:35.057Z,99990.47
2022-10-10T02:09:05.871Z,99990.44
2022-10-10T02:11:34.431Z,99989.94
2022-10-10T02:14:06.290Z,99987.53
2022-10-10T02:16:36.314Z,99980.00
2022-10-10T02:19:07.023Z,99983.16
2022-10-10T02:21:35.165Z,99970.06
2022-10-10T02:24:04.972Z,99978.63
2022-10-10T02:26:32.969Z,99975.66
2022-10-10T02:29:04.549Z,99967.31
2022-10-10T02:31:35.322Z,99983.28
2022-10-10T02:34:07.250Z,99980.50
2022-10-10T02:36:35.465Z,99972.47
2022-10-10T02:39:04.005Z,99969.91
2022-10-10T02:41:32.266Z,99964.47
2022-10-10T02:43:59.761Z,99973.81
2022-10-10T02:46:28.502Z,99968.81
2022-10-10T02:48:55.910Z,99972.47
2022-10-10T02:51:24.929Z,99971.84
2022-10-10T02:53:54.897Z,99966.31
2022-10-10T02:56:22.273Z,99957.16
2022-10-10T02:58:49.672Z,99960.66
2022-10-10T03:01:17.172Z,99951.22
2022-10-10T03:03:45.923Z,99959.97
2022-10-10T03:06:13.330Z,99956.41
2022-10-10T03:08:40.733Z,99954.00
2022-10-10T03:11:08.710Z,99951.09
2022-10-10T03:13:36.106Z,99944.44
2022-10-10T03:16:04.326Z,99941.09
2022-10-10T03:18:31.903Z,99935.56
2022-10-10T03:21:00.733Z,99927.97
2022-10-10T03:23:28.233Z,99942.50
2022-10-10T03:25:55.662Z,99933.22
2022-10-10T03:28:23.132Z,99938.19
2022-10-10T03:30:50.836Z,99934.47
2022-10-10T03:33:18.246Z,99934.28
2022-10-10T03:35:45.670Z,99931.47
2022-10-10T03:38:15.189Z,99931.50
2022-10-10T03:40:43.976Z,99922.41
2022-10-10T03:43:12.841Z,99927.06
2022-10-10T03:45:42.763Z,99920.22
2022-10-10T03:48:10.373Z,99920.56
2022-10-10T03:50:37.778Z,99914.41
2022-10-10T03:53:05.291Z,99922.75
2022-10-10T03:55:34.166Z,99925.13
2022-10-10T03:58:01.585Z,99915.53
2022-10-10T04:00:29.051Z,99914.00
2022-10-10T04:02:56.486Z,99912.53
2022-10-10T04:05:23.907Z,99904.97
2022-10-10T04:07:51.278Z,99908.44
2022-10-10T04:10:18.735Z,99911.13
2022-10-10T04:12:47.640Z,99889.53
2022-10-10T04:15:15.341Z,99907.75
2022-10-10T04:17:42.744Z,99908.75
2022-10-10T04:20:10.616Z,99897.28
2022-10-10T04:22:37.978Z,99898.94
2022-10-10T04:25:06.079Z,99900.41
2022-10-10T04:27:33.474Z,99905.03
2022-10-10T04:30:02.629Z,99902.94
2022-10-10T04:32:30.042Z,99902.09
2022-10-10T04:34:57.482Z,99894.09
2022-10-10T04:37:24.906Z,99894.25
2022-10-10T04:39:52.309Z,99893.34
2022-10-10T04:42:19.721Z,99892.38
2022-10-10T04:44:47.400Z,99894.13
2022-10-10T04:47:16.158Z,99886.50
2022-10-10T04:49:43.574Z,99888.38
2022-10-10T04:52:11.153Z,99876.06
2022-10-10T04:54:38.634Z,99884.19
2022-10-10T04:57:06.263Z,99882.50
2022-10-10T04:59:33.701Z,99891.75
2022-10-10T05:02:02.045Z,99876.34
2022-10-10T05:04:31.050Z,99875.81
2022-10-10T05:06:58.460Z,99882.50
2022-10-10T05:09:26.045Z,99882.69
2022-10-10T05:11:53.419Z,99883.72
2022-10-10T05:14:20.778Z,99887.50
2022-10-10T05:16:48.153Z,99893.78
2022-10-10T05:19:16.245Z,99890.97
2022-10-10T05:21:44.990Z,99886.53
2022-10-10T05:24:12.356Z,99894.66
2022-10-10T05:26:43.107Z,99896.28
2022-10-10T05:29:10.810Z,99898.38
2022-10-10T05:31:38.253Z,99890.09
2022-10-10T05:34:05.879Z,99884.72
2022-10-10T05:36:33.618Z,99892.47
2022-10-10T05:39:03.257Z,99889.94
2022-10-10T05:41:30.680Z,99890.38
2022-10-10T05:43:58.269Z,99879.56
2022-10-10T05:46:27.352Z,99886.09
2022-10-10T05:48:55.253Z,99880.69
2022-10-10T05:51:22.691Z,99877.91
2022-10-10T05:53:50.129Z,99880.81
2022-10-10T05:56:19.189Z,99875.34
2022-10-10T05:58:46.654Z,99878.31
2022-10-10T06:01:14.161Z,99876.63
2022-10-10T06:03:41.535Z,99877.66
2022-10-10T06:06:09.010Z,99884.75
2022-10-10T06:08:36.626Z,99882.84
2022-10-10T06:11:05.779Z,99894.44
2022-10-10T06:13:34.696Z,99889.09
2022-10-10T06:16:02.106Z,99887.84
2022-10-10T06:18:29.771Z,99894.13
2022-10-10T06:21:02.190Z,99884.22
2022-10-10T06:23:29.735Z,99894.22
2022-10-10T06:25:57.194Z,99883.53
2022-10-10T06:28:24.620Z,99893.38
2022-10-10T06:30:53.566Z,99882.66
2022-10-10T06:33:20.910Z,99890.31
2022-10-10T06:35:49.460Z,99885.56
2022-10-10T06:38:17.731Z,99892.66
2022-10-10T06:40:45.975Z,99888.69
2022-10-10T06:43:15.379Z,99890.50
2022-10-10T06:45:44.485Z,99893.84
2022-10-10T06:48:14.663Z,99889.19
2022-10-10T06:50:42.089Z,99880.81
2022-10-10T06:53:09.519Z,99890.28
2022-10-10T06:55:36.971Z,99887.00
2022-10-10T06:58:04.630Z,99886.84
2022-10-10T07:00:32.073Z,99890.00
2022-10-10T07:02:59.447Z,99885.81
2022-10-10T07:05:28.324Z,99880.53
2022-10-10T07:07:55.690Z,99878.38
2022-10-10T07:10:23.113Z,99869.13
2022-10-10T07:12:50.602Z,99869.28
2022-10-10T07:15:18.075Z,99870.53
2022-10-10T07:17:47.330Z,99866.81
2022-10-10T07:20:18.007Z,99868.06
2022-10-10T07:22:46.703Z,99872.13
2022-10-10T07:25:14.086Z,99875.63
2022-10-10T07:27:41.497Z,99873.75
2022-10-10T07:30:09.908Z,99876.19
2022-10-10T07:32:37.338Z,99868.31
2022-10-10T07:35:05.224Z,99868.31
2022-10-10T07:37:32.665Z,99867.75
2022-10-10T07:40:01.447Z,99863.00
2022-10-10T07:42:28.851Z,99857.97
2022-10-10T07:44:56.248Z,99857.97
2022-10-10T07:47:23.647Z,99857.13
2022-10-10T07:49:51.195Z,99857.22
2022-10-10T07:52:18.888Z,99859.34
2022-10-10T07:54:46.487Z,99854.03
2022-10-10T07:57:15.428Z,99853.00
2022-10-10T07:59:45.603Z,99863.13
2022-10-10T08:02:13.067Z,99871.00
2022-10-10T08:04:40.761Z,99875.50
2022-10-10T08:07:08.246Z,99867.91
2022-10-10T08:09:35.685Z,99871.19
2022-10-10T08:12:03.105Z,99874.47
2022-10-10T08:14:31.823Z,99879.81
2022-10-10T08:16:59.224Z,99878.59
2022-10-10T08:19:26.618Z,99867.84
2022-10-10T08:21:54.000Z,99873.84
2022-10-10T08:24:21.446Z,99876.31
2022-10-10T08:26:50.753Z,99862.69
2022-10-10T08:29:18.591Z,99865.31
2022-10-10T08:31:47.373Z,99864.88
2022-10-10T08:34:14.795Z,99870.19
2022-10-10T08:36:42.320Z,99859.44
2022-10-10T08:39:10.981Z,99859.50
2022-10-10T08:41:41.386Z,99870.13
2022-10-10T08:44:15.629Z,99850.72
2022-10-10T08:46:47.723Z,99863.97
2022-10-10T08:49:22.297Z,99864.66
2022-10-10T08:51:58.987Z,99861.69
2022-10-10T08:54:26.905Z,99857.63
2022-10-10T08:56:57.811Z,99857.00
2022-10-10T08:59:27.796Z,99865.09
2022-10-10T09:02:18.948Z,99868.41
2022-10-10T09:04:48.959Z,99874.50
2022-10-10T09:07:24.741Z,99862.75
2022-10-10T09:09:57.402Z,99864.13
2022-10-10T09:12:29.854Z,99858.84
2022-10-10T09:15:02.646Z,99869.47
2022-10-10T09:17:38.962Z,99859.09
2022-10-10T09:20:19.756Z,99867.59
2022-10-10T09:22:51.586Z,99863.91
2022-10-10T09:25:22.548Z,99863.63
2022-10-10T09:27:57.705Z,99864.06
2022-10-10T09:30:25.313Z,99866.72
2022-10-10T09:32:58.253Z,99859.44
2022-10-10T09:35:27.717Z,99863.59
2022-10-10T09:38:00.018Z,99854.78
2022-10-10T09:40:30.239Z,99857.28
2022-10-10T09:42:57.766Z,99855.44
2022-10-10T09:45:28.771Z,99859.44
2022-10-10T09:47:57.691Z,99873.50
2022-10-10T09:50:25.649Z,99866.50
2022-10-10T09:52:53.258Z,99875.38
2022-10-10T09:55:26.964Z,99877.03
2022-10-10T09:57:56.194Z,99878.97
2022-10-10T10:00:35.217Z,99882.47
2022-10-10T10:03:13.000Z,99881.06
2022-10-10T10:05:42.076Z,99872.16
2022-10-10T10:08:19.948Z,99868.69
2022-10-10T10:10:47.399Z,99879.44
2022-10-10T10:13:15.575Z,99873.72
2022-10-10T10:15:49.021Z,99882.78
2022-10-10T10:18:25.565Z,99875.22
2022-10-10T10:20:55.738Z,99879.28
2022-10-10T10:23:24.742Z,99889.94
2022-10-10T10:26:02.070Z,99886.69
2022-10-10T10:28:30.042Z,99873.72
2022-10-10T10:30:58.733Z,99887.22
2022-10-10T10:33:39.302Z,99881.16
2022-10-10T10:36:15.155Z,99889.59
2022-10-10T10:38:44.683Z,99890.63
2022-10-10T10:41:19.557Z,99888.09
2022-10-10T10:43:55.470Z,99890.94
2022-10-10T10:46:31.305Z,99889.03
2022-10-10T10:49:03.310Z,99889.22
2022-10-10T10:51:53.545Z,99889.72
2022-10-10T10:54:30.888Z,99888.28
2022-10-10T10:57:06.627Z,99883.00
2022-10-10T11:00:21.646Z,99891.50
2022-10-10T11:02:55.334Z,99882.00
2022-10-10T11:05:41.717Z,99886.94
2022-10-10T11:08:29.153Z,99883.72
2022-10-10T11:11:04.845Z,99884.84
2022-10-10T11:13:37.621Z,99888.56
2022-10-10T11:16:24.281Z,99889.31
2022-10-10T11:19:08.031Z,99884.47
2022-10-10T11:21:39.895Z,99885.72
2022-10-10T11:24:11.074Z,99878.91
2022-10-10T11:26:40.713Z,99874.94
2022-10-10T11:29:12.784Z,99874.94
2022-10-10T11:31:42.590Z,99876.66
2022-10-10T11:34:15.202Z,99875.19
2022-10-10T11:36:45.212Z,99864.53
2022-10-10T11:39:16.062Z,99868.63
2022-10-10T11:41:48.945Z,99861.53
2022-10-10T11:44:20.082Z,99862.84
2022-10-10T11:46:50.802Z,99866.00
2022-10-10T11:49:23.164Z,99863.00
2022-10-10T11:52:32.579Z,99869.88
2022-10-10T11:55:05.259Z,99864.84
2022-10-10T11:57:35.233Z,99866.75
2022-10-10T12:00:05.687Z,99866.63
2022-10-10T12:02:34.475Z,99864.13
2022-10-10T12:05:01.987Z,99855.00
2022-10-10T12:07:34.814Z,99862.03
2022-10-10T12:10:07.655Z,99855.03
2022-10-10T12:12:38.706Z,99848.75
2022-10-10T12:15:10.111Z,99842.91
2022-10-10T12:17:40.945Z,99838.41
2022-10-10T12:20:11.128Z,99834.72
2022-10-10T12:22:39.955Z,99843.50
2022-10-10T12:25:22.671Z,99841.88
2022-10-10T12:28:05.251Z,99835.34
2022-10-10T12:30:32.782Z,99837.06
2022-10-10T12:33:00.316Z,99832.91
2022-10-10T12:35:30.991Z,99830.59
2022-10-10T12:38:12.393Z,99840.66
2022-10-10T12:41:18.463Z,99837.53
2022-10-10T12:43:50.242Z,99839.03
2022-10-10T12:46:29.540Z,99840.44
2022-10-10T12:49:18.329Z,99844.16
2022-10-10T12:51:46.654Z,99853.56
2022-10-10T12:54:24.962Z,99850.72
2022-10-10T12:56:59.420Z,99847.50
2022-10-10T12:59:26.939Z,99849.03
2022-10-10T13:01:57.484Z,99854.41
2022-10-10T13:04:26.206Z,99861.81
2022-10-10T13:06:55.265Z,99857.31
2022-10-10T13:09:25.561Z,99855.69
2022-10-10T13:11:58.451Z,99855.09
2022-10-10T13:14:27.716Z,99857.53
2022-10-10T13:16:55.506Z,99865.53
2022-10-10T13:19:24.229Z,99865.75
2022-10-10T13:21:53.354Z,99858.97
2022-10-10T13:24:28.191Z,99865.41
2022-10-10T13:26:55.848Z,99861.06
2022-10-10T13:29:26.499Z,99869.56
2022-10-10T13:31:55.997Z,99872.47
2022-10-10T13:34:27.354Z,99867.09
2022-10-10T13:36:57.113Z,99870.25
2022-10-10T13:39:26.550Z,99870.25
2022-10-10T13:41:55.218Z,99876.13
2022-10-10T13:44:24.274Z,99865.56
2022-10-10T13:46:52.040Z,99861.09
2022-10-10T13:49:25.253Z,99869.59
2022-10-10T13:52:02.899Z,99864.06
2022-10-10T13:54:43.770Z,99867.03
2022-10-10T13:57:19.796Z,99871.66
2022-10-10T13:59:51.414Z,99868.41
2022-10-10T14:02:25.180Z,99869.34
2022-10-10T14:04:54.742Z,99867.19
2022-10-10T14:07:24.729Z,99861.91
2022-10-10T14:09:54.948Z,99870.13
2022-10-10T14:12:27.112Z,99862.59
2022-10-10T14:14:56.165Z,99868.72
2022-10-10T14:17:23.767Z,99876.25
2022-10-10T14:19:51.883Z,99891.63
2022-10-10T14:22:19.650Z,99883.13
2022-10-10T14:24:47.238Z,99885.59
2022-10-10T14:27:24.027Z,99890.25
2022-10-10T14:29:52.142Z,99899.50
2022-10-10T14:32:19.969Z,99907.28
2022-10-10T14:34:47.772Z,99910.53
2022-10-10T14:37:18.833Z,99902.41
2022-10-10T14:39:47.130Z,99903.63
2022-10-10T14:42:16.081Z,99904.53
2022-10-10T14:44:44.847Z,99900.16
2022-10-10T14:47:17.036Z,99898.69
2022-10-10T14:49:44.997Z,99906.78
2022-10-10T14:52:12.764Z,99910.88
2022-10-10T14:54:40.783Z,99907.84
2022-10-10T14:57:10.250Z,99912.25
2022-10-10T14:59:46.360Z,99914.88
2022-10-10T15:02:19.617Z,99914.69
2022-10-10T15:04:47.010Z,99915.13
2022-10-10T15:07:15.334Z,99913.69
2022-10-10T15:10:02.665Z,99910.63
2022-10-10T15:12:31.031Z,99918.66
2022-10-10T15:14:58.486Z,99927.59
2022-10-10T15:17:27.323Z,99933.09
2022-10-10T15:19:54.771Z,99943.16
2022-10-10T15:22:22.234Z,99943.47
2022-10-10T15:24:49.633Z,99948.25
2022-10-10T15:27:17.273Z,99954.47
2022-10-10T15:29:44.684Z,99953.97
2022-10-10T15:32:12.096Z,99961.81
2022-10-10T15:34:40.894Z,99958.22
2022-10-10T15:37:10.393Z,99965.84
2022-10-10T15:39:38.564Z,99977.34
2022-10-10T15:42:12.667Z,99978.31
2022-10-10T15:44:45.302Z,99981.28
2022-10-10T15:47:12.848Z,99985.41
2022-10-10T15:49:42.060Z,99992.00
2022-10-10T15:52:09.864Z,99988.41
2022-10-10T15:54:37.326Z,99991.31
2022-10-10T15:57:04.897Z,99992.06
2022-10-10T15:59:32.741Z,99998.44
2022-10-10T16:02:00.147Z,99998.22
2022-10-10T16:04:27.652Z,100004.13
2022-10-10T16:09:43.870Z,100008.19
2022-10-10T16:12:11.374Z,100006.16
2022-10-10T16:14:38.778Z,100018.88
2022-10-10T16:17:06.244Z,100027.72
2022-10-10T16:19:33.638Z,100022.41
2022-10-10T16:22:02.407Z,100022.88
2022-10-10T16:24:30.544Z,100035.75
2022-10-10T16:26:59.314Z,100033.22
2022-10-10T16:29:26.717Z,100037.75
2022-10-10T16:31:54.153Z,100036.41
2022-10-10T16:34:21.562Z,100060.16
2022-10-10T16:36:49.029Z,100065.56
2022-10-10T16:39:17.763Z,100068.91
2022-10-10T16:41:49.148Z,100075.13
2022-10-10T16:44:17.054Z,100086.50
2022-10-10T16:46:44.627Z,100095.75
2022-10-10T16:49:13.361Z,100106.00
2022-10-10T16:51:40.831Z,100108.06
2022-10-10T16:54:08.642Z,100120.41
2022-10-10T16:56:37.374Z,100130.44
2022-10-10T16:59:06.201Z,100141.09
2022-10-10T17:01:34.163Z,100147.44
2022-10-10T17:04:02.934Z,100149.97
2022-10-10T17:06:35.288Z,100148.19
2022-10-10T17:09:03.097Z,100149.31
2022-10-10T17:11:30.470Z,100156.88
2022-10-10T17:13:59.273Z,100164.75
2022-10-10T17:19:15.868Z,100167.53
2022-10-10T17:21:43.275Z,100184.41
2022-10-10T17:24:10.725Z,100175.47
2022-10-10T17:26:38.132Z,100179.19
2022-10-10T17:29:06.817Z,100185.16
2022-10-10T17:31:34.178Z,100190.47
2022-10-10T17:34:01.536Z,100194.41
2022-10-10T17:36:29.485Z,100193.84
2022-10-10T17:38:57.154Z,100201.34
2022-10-10T17:41:24.855Z,100198.38
2022-10-10T17:43:52.346Z,100196.00
2022-10-10T17:46:34.465Z,100204.56
2022-10-10T17:49:03.398Z,100220.44
2022-10-10T17:51:30.821Z,100213.00
2022-10-10T17:53:59.697Z,100221.44
2022-10-10T17:56:27.125Z,100221.81
2022-10-10T17:58:54.672Z,100234.53
2022-10-10T18:01:23.765Z,100231.03
2022-10-10T18:03:51.401Z,100234.59
2022-10-10T18:06:23.060Z,100243.34
2022-10-10T18:08:51.585Z,100251.63
2022-10-10T18:11:21.340Z,100249.88
2022-10-10T18:13:48.987Z,100258.50
2022-10-10T18:16:17.973Z,100264.88
2022-10-10T18:18:51.110Z,100267.19
2022-10-10T18:21:20.970Z,100272.66
2022-10-10T18:23:48.858Z,100289.91
2022-10-10T18:26:19.031Z,100299.31
2022-10-10T18:28:46.554Z,100295.63
2022-10-10T18:31:15.840Z,100309.44
2022-10-10T18:33:44.676Z,100312.03
2022-10-10T18:36:15.421Z,100323.75
2022-10-10T18:38:42.855Z,100331.19
2022-10-10T18:41:12.273Z,100340.50
2022-10-10T18:43:40.606Z,100341.84
2022-10-10T18:46:09.573Z,100354.72
2022-10-10T18:48:38.613Z,100350.16
2022-10-10T18:51:08.172Z,100359.34
2022-10-10T18:53:37.961Z,100366.16
2022-10-10T18:56:06.373Z,100367.34
2022-10-10T18:58:34.762Z,100375.00
2022-10-10T19:01:05.065Z,100379.63
2022-10-10T19:03:32.716Z,100377.44
2022-10-10T19:06:01.570Z,100374.16
2022-10-10T19:08:31.494Z,100383.97
2022-10-10T19:11:00.429Z,100383.47
2022-10-10T19:13:28.462Z,100391.44
2022-10-10T19:15:55.978Z,100395.22
2022-10-10T19:18:23.756Z,100404.31
2022-10-10T19:20:51.180Z,100401.56
2022-10-10T19:23:19.615Z,100402.53
2022-10-10T19:25:47.085Z,100406.03
2022-10-10T19:28:15.837Z,100410.59
2022-10-10T19:30:44.642Z,100420.59
2022-10-10T19:33:12.759Z,100426.00
2022-10-10T19:35:42.142Z,100435.72
2022-10-10T19:38:11.105Z,100428.06
2022-10-10T19:40:44.517Z,100440.06
2022-10-10T19:43:12.077Z,100442.91
2022-10-10T19:45:44.694Z,100446.41
2022-10-10T19:48:12.033Z,100449.94
2022-10-10T19:50:40.670Z,100451.72
2022-10-10T19:53:09.892Z,100455.75
2022-10-10T19:55:37.989Z,100453.09
2022-10-10T19:58:05.550Z,100464.63
2022-10-10T20:00:33.246Z,100469.44
2022-10-10T20:03:01.923Z,100474.78
2022-10-10T20:05:29.394Z,100475.78
2022-10-10T20:07:56.748Z,100478.13
2022-10-10T20:10:24.689Z,100482.91
2022-10-10T20:12:52.473Z,100482.91
2022-10-10T20:15:19.841Z,100488.38
2022-10-10T20:17:47.342Z,100495.19
2022-10-10T20:20:16.022Z,100494.03
2022-10-10T20:22:44.461Z,100493.53
2022-10-10T20:25:12.509Z,100494.84
2022-10-10T20:27:39.949Z,100505.28
2022-10-10T20:30:08.391Z,100509.25
2022-10-10T20:32:35.930Z,100515.22
2022-10-10T20:35:03.352Z,100518.69
2022-10-10T20:37:31.994Z,100527.94
2022-10-10T20:39:59.492Z,100533.94
2022-10-10T20:42:26.874Z,100538.03
2022-10-10T20:44:54.582Z,100538.97
2022-10-10T20:47:21.918Z,100542.56
2022-10-10T20:49:49.299Z,100541.38
2022-10-10T20:52:16.666Z,100543.50
2022-10-10T20:54:45.554Z,100545.56
2022-10-10T20:57:12.911Z,100558.84
2022-10-10T20:59:40.312Z,100557.41
2022-10-10T21:02:07.777Z,100556.97
2022-10-10T21:04:35.266Z,100560.91
2022-10-10T21:07:02.801Z,100556.91
2022-10-10T21:09:30.214Z,100571.94
2022-10-10T21:11:58.969Z,100563.56
2022-10-10T21:14:26.514Z,100571.81
2022-10-10T21:16:54.392Z,100576.41
2022-10-10T21:19:22.039Z,100577.75
2022-10-10T21:21:49.373Z,100580.47
2022-10-10T21:24:16.818Z,100590.84
2022-10-10T21:26:45.298Z,100589.72
2022-10-10T21:29:13.974Z,100604.72
2022-10-10T21:31:41.676Z,100598.13
2022-10-10T21:34:13.209Z,100596.16
2022-10-10T21:36:40.907Z,100599.44
2022-10-10T21:39:08.297Z,100601.53
2022-10-10T21:41:36.203Z,100603.16
2022-10-10T21:44:03.809Z,100602.16
2022-10-10T21:46:36.544Z,100611.22
2022-10-10T21:49:05.709Z,100614.41
2022-10-10T21:51:36.126Z,100613.69
2022-10-10T21:54:03.548Z,100615.53
2022-10-10T21:56:30.885Z,100624.78
2022-10-10T21:59:01.218Z,100624.41
2022-10-10T22:01:29.303Z,100633.56
2022-10-10T22:03:58.125Z,100638.31
2022-10-10T22:06:25.908Z,100639.09
2022-10-10T22:08:56.887Z,100642.28
2022-10-10T22:11:26.050Z,100638.16
2022-10-10T22:13:53.933Z,100637.88
2022-10-10T22:16:21.474Z,100645.38
2022-10-10T22:18:48.849Z,100644.94
2022-10-10T22:21:17.654Z,100656.53
2022-10-10T22:23:45.601Z,100655.69
2022-10-10T22:26:14.641Z,100654.28
2022-10-10T22:28:42.933Z,100654.44
2022-10-10T22:31:11.988Z,100666.19
2022-10-10T22:33:39.757Z,100658.56
2022-10-10T22:36:08.454Z,100666.53
2022-10-10T22:38:39.553Z,100669.06
2022-10-10T22:41:07.121Z,100665.75
2022-10-10T22:43:34.689Z,100661.41
2022-10-10T22:46:05.567Z,100670.19
2022-10-10T22:48:33.341Z,100665.31
2022-10-10T22:51:02.661Z,100654.88
2022-10-10T22:53:30.534Z,100668.34
2022-10-10T22:55:59.219Z,100663.03
2022-10-10T22:58:26.639Z,100664.19
2022-10-10T23:00:54.394Z,100670.88
2022-10-10T23:03:21.856Z,100668.06
2022-10-10T23:05:49.180Z,100673.91
2022-10-10T23:08:16.574Z,100672.47
2022-10-10T23:10:44.473Z,100680.66
2022-10-10T23:13:13.296Z,100679.16
2022-10-10T23:15:40.669Z,100683.78
2022-10-10T23:18:08.174Z,100687.69
2022-10-10T23:20:35.958Z,100687.19
2022-10-10T23:23:03.348Z,100685.94
2022-10-10T23:25:30.885Z,100689.06
2022-10-10T23:27:58.277Z,100686.97
2022-10-10T23:30:27.250Z,100684.34
2022-10-10T23:32:54.649Z,100690.88
2022-10-10T23:35:22.153Z,100685.28
2022-10-10T23:37:49.649Z,100692.81
2022-10-10T23:40:17.274Z,100685.97
2022-10-10T23:42:44.781Z,100686.25
2022-10-10T23:45:12.136Z,100693.34
2022-10-10T23:47:40.821Z,100691.81
2022-10-10T23:50:09.005Z,100693.31
2022-10-10T23:52:36.449Z,100694.66
2022-10-10T23:55:03.958Z,100698.56
2022-10-10T23:57:31.430Z,100700.53
2022-10-10T23:59:58.943Z,100700.41
